^^
Saratoga-Weather Station Historical Data
 
Daily Summary for October 15, 2019 Units:  Metric    English   Both

Notice: Undefined index: PHPSELF in C:\OpenGrADS\Contents\tmp\WU-History-inc.php on line 388
Daily Weekly Monthly Yearly Custom
  Current: High: Low: Average:
Temperature: 15.9 °C 17.0 °C 14.6 °C 15.6 °C
Dew Point: 13.6 °C 15.1 °C 13.3 °C 13.9 °C
Humidity: 86% 93% 82% 90%
Wind Speed: 14.8km/h 24.1km/h 11.1km/h 15.9km/h
Wind Gust: 14.8km/h 24.1km/h - -
WindSW - - South
Pressure: 1005.0 hPa 1005.3 hPa 1002.7 hPa -
Precipitation: 0.0 mm      
Historical Graphs
 
 
Tabular Data for October 15, 2019
Time Temperature Dew Point Pressure Wind Wind Speed Wind Gust Humidity Rainfall Rate (Hourly) solar
00:00 16.2 °C 15.1 °C 1003.4 hPa South 13.0 km/h 13.0 km/h 93% 0.0 mm 0.00 W/m2
00:05 16.2 °C 15.1 °C 1003.5 hPa SE 13.0 km/h 13.0 km/h 93% 0.0 mm 0.00 W/m2
00:10 16.1 °C 15.0 °C 1003.4 hPa SE 13.0 km/h 13.0 km/h 93% 0.0 mm 0.00 W/m2
00:15 16.1 °C 15.0 °C 1003.1 hPa SE 13.0 km/h 13.0 km/h 93% 0.0 mm 0.00 W/m2
00:20 16.1 °C 14.9 °C 1003.0 hPa SE 13.0 km/h 13.0 km/h 93% 0.0 mm 0.00 W/m2
00:25 16.1 °C 14.9 °C 1003.2 hPa SE 13.0 km/h 13.0 km/h 93% 0.0 mm 0.00 W/m2
00:30 16.1 °C 14.9 °C 1003.1 hPa SE 13.0 km/h 13.0 km/h 93% 0.0 mm 0.00 W/m2
00:35 16.1 °C 14.9 °C 1002.9 hPa SE 11.1 km/h 11.1 km/h 93% 0.0 mm 0.00 W/m2
00:40 16.1 °C 14.9 °C 1002.9 hPa SE 11.1 km/h 11.1 km/h 93% 0.0 mm 0.00 W/m2
00:45 16.1 °C 14.9 °C 1002.7 hPa SE 11.1 km/h 11.1 km/h 93% 0.0 mm 0.00 W/m2
00:50 16.1 °C 14.9 °C 1002.9 hPa SE 11.1 km/h 11.1 km/h 93% 0.0 mm 0.00 W/m2
00:55 16.1 °C 15.0 °C 1003.0 hPa SE 11.1 km/h 11.1 km/h 93% 0.0 mm 0.00 W/m2
01:00 16.1 °C 15.0 °C 1003.0 hPa SE 11.1 km/h 11.1 km/h 93% 0.0 mm 0.00 W/m2
01:05 16.1 °C 15.0 °C 1003.0 hPa SE 11.1 km/h 11.1 km/h 93% 0.0 mm 0.00 W/m2
01:10 16.1 °C 15.0 °C 1003.0 hPa SE 11.1 km/h 11.1 km/h 93% 0.0 mm 0.00 W/m2
01:15 16.1 °C 15.0 °C 1003.2 hPa SE 11.1 km/h 11.1 km/h 93% 0.0 mm 0.00 W/m2
01:20 16.2 °C 15.1 °C 1003.3 hPa SE 11.1 km/h 11.1 km/h 93% 0.0 mm 0.00 W/m2
01:25 16.3 °C 15.0 °C 1003.4 hPa SE 11.1 km/h 11.1 km/h 92% 0.0 mm 0.00 W/m2
01:30 16.3 °C 15.1 °C 1003.4 hPa SE 11.1 km/h 11.1 km/h 92% 0.0 mm 0.00 W/m2
01:35 16.4 °C 15.1 °C 1003.3 hPa SSE 16.7 km/h 16.7 km/h 92% 0.0 mm 0.00 W/m2
01:40 16.4 °C 15.1 °C 1003.3 hPa SSE 16.7 km/h 16.7 km/h 92% 0.0 mm 0.00 W/m2
01:45 16.4 °C 14.9 °C 1003.1 hPa SSE 16.7 km/h 16.7 km/h 91% 0.0 mm 0.00 W/m2
01:50 16.4 °C 14.9 °C 1003.4 hPa SSE 16.7 km/h 16.7 km/h 91% 0.0 mm 0.00 W/m2
01:55 16.4 °C 14.9 °C 1003.4 hPa SSE 16.7 km/h 16.7 km/h 91% 0.0 mm 0.00 W/m2
02:00 16.3 °C 14.8 °C 1003.4 hPa SSE 16.7 km/h 16.7 km/h 91% 0.0 mm 0.00 W/m2
02:05 16.3 °C 14.8 °C 1003.5 hPa South 16.7 km/h 16.7 km/h 91% 0.0 mm 0.00 W/m2
02:10 16.2 °C 14.8 °C 1003.5 hPa South 16.7 km/h 16.7 km/h 91% 0.0 mm 0.00 W/m2
02:15 16.2 °C 14.7 °C 1003.5 hPa South 16.7 km/h 16.7 km/h 91% 0.0 mm 0.00 W/m2
02:20 16.2 °C 14.7 °C 1003.5 hPa South 16.7 km/h 16.7 km/h 91% 0.0 mm 0.00 W/m2
02:25 16.3 °C 14.7 °C 1003.6 hPa South 16.7 km/h 16.7 km/h 90% 0.0 mm 0.00 W/m2
02:30 16.6 °C 14.6 °C 1003.7 hPa South 16.7 km/h 16.7 km/h 88% 0.0 mm 0.00 W/m2
02:35 16.7 °C 14.4 °C 1003.6 hPa South 14.8 km/h 14.8 km/h 86% 0.0 mm 0.00 W/m2
02:40 16.9 °C 14.2 °C 1003.6 hPa South 14.8 km/h 14.8 km/h 84% 0.0 mm 0.00 W/m2
02:45 16.9 °C 14.1 °C 1003.6 hPa South 14.8 km/h 14.8 km/h 83% 0.0 mm 0.00 W/m2
02:50 17.0 °C 13.9 °C 1003.5 hPa South 14.8 km/h 14.8 km/h 82% 0.0 mm 0.00 W/m2
02:55 17.0 °C 13.9 °C 1003.4 hPa South 14.8 km/h 14.8 km/h 82% 0.0 mm 0.00 W/m2
03:00 16.9 °C 13.8 °C 1003.3 hPa South 14.8 km/h 14.8 km/h 82% 0.0 mm 0.00 W/m2
03:05 16.9 °C 13.8 °C 1003.5 hPa SW 16.7 km/h 16.7 km/h 82% 0.0 mm 0.00 W/m2
03:10 16.8 °C 13.7 °C 1003.4 hPa SW 16.7 km/h 16.7 km/h 82% 0.0 mm 0.00 W/m2
03:15 16.7 °C 13.8 °C 1003.3 hPa SW 16.7 km/h 16.7 km/h 83% 0.0 mm 0.00 W/m2
03:20 16.6 °C 13.7 °C 1003.3 hPa SW 16.7 km/h 16.7 km/h 83% 0.0 mm 0.00 W/m2
03:25 16.5 °C 13.8 °C 1003.3 hPa SW 16.7 km/h 16.7 km/h 84% 0.0 mm 0.00 W/m2
03:30 16.4 °C 13.7 °C 1003.3 hPa SW 16.7 km/h 16.7 km/h 84% 0.0 mm 0.00 W/m2
04:34 15.8 °C 13.7 °C 1003.5 hPa North 24.1 km/h   87% 0.0 mm 0.00 W/m2
04:35 15.8 °C 13.7 °C 1003.5 hPa SW 24.1 km/h 24.1 km/h 87% 0.0 mm 0.00 W/m2
04:40 15.8 °C 13.6 °C 1003.2 hPa SW 24.1 km/h 24.1 km/h 87% 0.0 mm 0.00 W/m2
04:45 15.8 °C 13.6 °C 1003.2 hPa SSW 22.2 km/h 22.2 km/h 87% 0.0 mm 0.00 W/m2
04:50 15.7 °C 13.5 °C 1003.2 hPa SSW 22.2 km/h 22.2 km/h 87% 0.0 mm 0.00 W/m2
04:55 15.6 °C 13.6 °C 1003.2 hPa SSW 22.2 km/h 22.2 km/h 88% 0.0 mm 0.00 W/m2
05:00 15.6 °C 13.6 °C 1003.3 hPa SSW 22.2 km/h 22.2 km/h 88% 0.0 mm 0.00 W/m2
05:05 15.6 °C 13.6 °C 1003.3 hPa SSW 13.0 km/h 13.0 km/h 88% 0.0 mm 0.00 W/m2
05:10 15.5 °C 13.5 °C 1003.5 hPa SSW 13.0 km/h 13.0 km/h 88% 0.0 mm 0.00 W/m2
05:15 15.4 °C 13.4 °C 1003.4 hPa SSW 13.0 km/h 13.0 km/h 88% 0.0 mm 0.00 W/m2
05:20 15.4 °C 13.7 °C 1003.6 hPa SSW 13.0 km/h 13.0 km/h 89% 0.0 mm 0.00 W/m2
05:25 15.4 °C 13.7 °C 1003.7 hPa SSW 13.0 km/h 13.0 km/h 89% 0.0 mm 0.00 W/m2
05:30 15.4 °C 13.6 °C 1003.8 hPa SSW 13.0 km/h 13.0 km/h 89% 0.0 mm 0.00 W/m2
06:34 15.1 °C 13.6 °C 1003.5 hPa North 13.0 km/h   91% 0.0 mm 0.00 W/m2
06:35 15.1 °C 13.6 °C 1003.5 hPa South 13.0 km/h 13.0 km/h 91% 0.0 mm 0.00 W/m2
06:40 15.1 °C 13.6 °C 1003.2 hPa South 13.0 km/h 13.0 km/h 91% 0.0 mm 0.00 W/m2
06:45 15.1 °C 13.6 °C 1003.3 hPa SSW 20.4 km/h 20.4 km/h 91% 0.0 mm 0.00 W/m2
06:50 15.1 °C 13.6 °C 1003.4 hPa SSW 20.4 km/h 20.4 km/h 91% 0.0 mm 0.00 W/m2
06:55 15.1 °C 13.6 °C 1003.4 hPa SSW 20.4 km/h 20.4 km/h 91% 0.0 mm 0.00 W/m2
07:00 15.0 °C 13.7 °C 1003.4 hPa SSW 20.4 km/h 20.4 km/h 92% 0.0 mm 0.00 W/m2
07:05 14.9 °C 13.7 °C 1003.3 hPa SW 20.4 km/h 20.4 km/h 92% 0.0 mm 0.00 W/m2
07:10 14.9 °C 13.7 °C 1003.4 hPa SW 20.4 km/h 20.4 km/h 92% 0.0 mm 0.00 W/m2
07:15 14.9 °C 13.6 °C 1003.5 hPa SW 20.4 km/h 20.4 km/h 92% 0.0 mm 0.00 W/m2
07:20 14.8 °C 13.6 °C 1003.6 hPa SW 20.4 km/h 20.4 km/h 92% 0.0 mm 0.00 W/m2
07:25 14.8 °C 13.6 °C 1003.8 hPa SW 20.4 km/h 20.4 km/h 92% 0.0 mm 0.00 W/m2
07:30 14.8 °C 13.5 °C 1004.0 hPa SW 20.4 km/h 20.4 km/h 92% 0.0 mm 0.00 W/m2
07:35 14.8 °C 13.5 °C 1003.9 hPa SSW 16.7 km/h 16.7 km/h 92% 0.0 mm 0.00 W/m2
07:40 14.7 °C 13.4 °C 1004.1 hPa SSW 16.7 km/h 16.7 km/h 92% 0.0 mm 0.00 W/m2
07:45 14.7 °C 13.4 °C 1004.1 hPa SSW 16.7 km/h 16.7 km/h 92% 0.0 mm 0.00 W/m2
07:50 14.7 °C 13.4 °C 1004.0 hPa SSW 16.7 km/h 16.7 km/h 92% 0.0 mm 0.00 W/m2
07:55 14.8 °C 13.5 °C 1003.9 hPa SSW 16.7 km/h 16.7 km/h 92% 0.0 mm 0.00 W/m2
08:00 14.7 °C 13.4 °C 1003.9 hPa SSW 16.7 km/h 16.7 km/h 92% 0.0 mm 0.00 W/m2
08:05 14.7 °C 13.4 °C 1003.8 hPa SSW 22.2 km/h 22.2 km/h 92% 0.0 mm 0.00 W/m2
08:10 14.7 °C 13.4 °C 1003.9 hPa SSW 22.2 km/h 22.2 km/h 92% 0.0 mm 0.00 W/m2
08:15 14.7 °C 13.4 °C 1003.8 hPa SSW 22.2 km/h 22.2 km/h 92% 0.0 mm 7.00 W/m2
08:20 14.7 °C 13.4 °C 1003.9 hPa SSW 22.2 km/h 22.2 km/h 92% 0.0 mm 9.00 W/m2
08:25 14.7 °C 13.4 °C 1003.9 hPa SSW 22.2 km/h 22.2 km/h 92% 0.0 mm 11.00 W/m2
08:30 14.7 °C 13.4 °C 1003.9 hPa SSW 22.2 km/h 22.2 km/h 92% 0.0 mm 12.00 W/m2
08:35 14.7 °C 13.4 °C 1003.9 hPa SSW 14.8 km/h 14.8 km/h 92% 0.0 mm 18.00 W/m2
08:40 14.6 °C 13.3 °C 1003.9 hPa SSW 14.8 km/h 14.8 km/h 92% 0.0 mm 23.00 W/m2
08:45 14.6 °C 13.3 °C 1003.9 hPa SSW 14.8 km/h 14.8 km/h 92% 0.0 mm 28.00 W/m2
08:50 14.6 °C 13.3 °C 1003.8 hPa SSW 14.8 km/h 14.8 km/h 92% 0.0 mm 33.00 W/m2
08:55 14.6 °C 13.3 °C 1003.9 hPa SSW 14.8 km/h 14.8 km/h 92% 0.0 mm 35.00 W/m2
09:00 14.6 °C 13.3 °C 1004.0 hPa SSW 14.8 km/h 14.8 km/h 92% 0.0 mm 42.00 W/m2
09:05 14.6 °C 13.3 °C 1004.2 hPa South 14.8 km/h 14.8 km/h 92% 0.0 mm 51.00 W/m2
09:10 14.7 °C 13.4 °C 1004.3 hPa South 14.8 km/h 14.8 km/h 92% 0.0 mm 53.00 W/m2
09:15 14.7 °C 13.4 °C 1004.4 hPa South 14.8 km/h 14.8 km/h 92% 0.0 mm 56.00 W/m2
09:20 14.7 °C 13.4 °C 1004.3 hPa South 14.8 km/h 14.8 km/h 92% 0.0 mm 67.00 W/m2
09:25 14.7 °C 13.4 °C 1004.4 hPa South 14.8 km/h 14.8 km/h 92% 0.0 mm 79.00 W/m2
09:30 14.8 °C 13.5 °C 1004.5 hPa South 14.8 km/h 14.8 km/h 92% 0.0 mm 83.00 W/m2
09:35 14.8 °C 13.4 °C 1004.5 hPa South 14.8 km/h 13.0 km/h 91% 0.0 mm 76.00 W/m2
09:40 14.8 °C 13.4 °C 1004.5 hPa South 13.0 km/h 13.0 km/h 91% 0.0 mm 76.00 W/m2
09:45 14.9 °C 13.4 °C 1004.5 hPa South 13.0 km/h 13.0 km/h 91% 0.0 mm 67.00 W/m2
09:50 14.9 °C 13.4 °C 1004.7 hPa South 13.0 km/h 13.0 km/h 91% 0.0 mm 58.00 W/m2
09:55 14.9 °C 13.5 °C 1004.7 hPa South 13.0 km/h 13.0 km/h 91% 0.0 mm 58.00 W/m2
10:00 15.0 °C 13.6 °C 1004.6 hPa South 13.0 km/h 13.0 km/h 91% 0.0 mm 90.00 W/m2
10:05 15.0 °C 13.6 °C 1004.5 hPa SSW 18.5 km/h 18.5 km/h 91% 0.0 mm 91.00 W/m2
10:10 15.1 °C 13.6 °C 1004.6 hPa SSW 18.5 km/h 18.5 km/h 91% 0.0 mm 79.00 W/m2
10:15 15.1 °C 13.4 °C 1004.7 hPa SSW 18.5 km/h 18.5 km/h 90% 0.0 mm 84.00 W/m2
10:20 15.1 °C 13.5 °C 1004.7 hPa SSW 18.5 km/h 18.5 km/h 90% 0.0 mm 98.00 W/m2
10:25 15.2 °C 13.6 °C 1004.9 hPa SSW 18.5 km/h 18.5 km/h 90% 0.0 mm 90.00 W/m2
10:30 15.2 °C 13.6 °C 1005.1 hPa SSW 18.5 km/h 18.5 km/h 90% 0.0 mm 69.00 W/m2
10:35 15.2 °C 13.6 °C 1005.0 hPa SSW 11.1 km/h 11.1 km/h 90% 0.0 mm 70.00 W/m2
10:40 15.2 °C 13.6 °C 1005.0 hPa SSW 11.1 km/h 11.1 km/h 90% 0.0 mm 91.00 W/m2
10:45 15.2 °C 13.6 °C 1004.8 hPa SSW 11.1 km/h 11.1 km/h 90% 0.0 mm 104.00 W/m2
10:50 15.3 °C 13.7 °C 1004.8 hPa SSW 11.1 km/h 11.1 km/h 90% 0.0 mm 121.00 W/m2
10:55 15.3 °C 13.7 °C 1004.9 hPa SSW 11.1 km/h 11.1 km/h 90% 0.0 mm 104.00 W/m2
11:00 15.4 °C 13.8 °C 1004.9 hPa SSW 11.1 km/h 11.1 km/h 90% 0.0 mm 120.00 W/m2
11:05 15.4 °C 13.6 °C 1004.8 hPa South 16.7 km/h 16.7 km/h 89% 0.0 mm 132.00 W/m2
11:10 15.5 °C 13.9 °C 1004.5 hPa South 16.7 km/h 16.7 km/h 90% 0.0 mm 169.00 W/m2
11:15 15.6 °C 13.8 °C 1004.5 hPa South 16.7 km/h 16.7 km/h 89% 0.0 mm 135.00 W/m2
11:20 15.7 °C 13.9 °C 1004.5 hPa South 16.7 km/h 16.7 km/h 89% 0.0 mm 125.00 W/m2
11:25 15.7 °C 13.9 °C 1004.9 hPa South 16.7 km/h 16.7 km/h 89% 0.0 mm 139.00 W/m2
11:30 15.8 °C 13.8 °C 1005.0 hPa South 16.7 km/h 16.7 km/h 88% 0.0 mm 113.00 W/m2
11:35 15.7 °C 13.7 °C 1004.8 hPa South 13.0 km/h 13.0 km/h 88% 0.0 mm 114.00 W/m2
11:40 15.7 °C 13.5 °C 1005.0 hPa South 13.0 km/h 13.0 km/h 87% 0.0 mm 111.00 W/m2
11:45 15.7 °C 13.5 °C 1005.1 hPa South 13.0 km/h 13.0 km/h 87% 0.0 mm 54.00 W/m2
11:50 15.7 °C 13.5 °C 1005.1 hPa South 13.0 km/h 13.0 km/h 87% 0.0 mm 76.00 W/m2
11:55 15.7 °C 13.5 °C 1005.1 hPa South 13.0 km/h 13.0 km/h 87% 0.0 mm 104.00 W/m2
12:00 15.6 °C 13.4 °C 1005.0 hPa South 13.0 km/h 13.0 km/h 87% 0.0 mm 100.00 W/m2
12:05 15.6 °C 13.4 °C 1005.0 hPa SSW 20.4 km/h 20.4 km/h 87% 0.0 mm 86.00 W/m2
12:10 15.5 °C 13.3 °C 1005.0 hPa SSW 20.4 km/h 20.4 km/h 87% 0.0 mm 76.00 W/m2
12:15 15.5 °C 13.3 °C 1004.9 hPa SSW 20.4 km/h 20.4 km/h 87% 0.0 mm 88.00 W/m2
12:20 15.5 °C 13.5 °C 1005.0 hPa SSW 20.4 km/h 20.4 km/h 88% 0.0 mm 123.00 W/m2
12:25 15.4 °C 13.4 °C 1005.0 hPa SSW 20.4 km/h 20.4 km/h 88% 0.0 mm 127.00 W/m2
12:30 15.5 °C 13.5 °C 1005.1 hPa SSW 20.4 km/h 20.4 km/h 88% 0.0 mm 163.00 W/m2
12:35 15.6 °C 13.6 °C 1005.2 hPa SW 13.0 km/h 13.0 km/h 88% 0.0 mm 146.00 W/m2
12:40 15.6 °C 13.4 °C 1005.3 hPa SW 13.0 km/h 13.0 km/h 87% 0.0 mm 139.00 W/m2
12:45 15.7 °C 13.5 °C 1005.3 hPa SW 13.0 km/h 13.0 km/h 87% 0.0 mm 142.00 W/m2
12:50 15.7 °C 13.7 °C 1005.3 hPa SW 13.0 km/h 13.0 km/h 88% 0.0 mm 114.00 W/m2
12:55 15.7 °C 13.5 °C 1005.3 hPa SW 13.0 km/h 13.0 km/h 87% 0.0 mm 116.00 W/m2
13:00 15.7 °C 13.5 °C 1005.1 hPa SW 13.0 km/h 13.0 km/h 87% 0.0 mm 162.00 W/m2
13:05 15.7 °C 13.5 °C 1005.0 hPa SSW 16.7 km/h 16.7 km/h 87% 0.0 mm 179.00 W/m2
13:10 15.8 °C 13.6 °C 1005.0 hPa SSW 16.7 km/h 16.7 km/h 87% 0.0 mm 179.00 W/m2
13:15 15.8 °C 13.4 °C 1005.1 hPa SSW 16.7 km/h 16.7 km/h 86% 0.0 mm 156.00 W/m2
13:20 15.8 °C 13.5 °C 1005.0 hPa SSW 16.7 km/h 16.7 km/h 86% 0.0 mm 162.00 W/m2
13:25 15.8 °C 13.5 °C 1005.1 hPa SSW 16.7 km/h 16.7 km/h 86% 0.0 mm 158.00 W/m2
13:30 15.8 °C 13.5 °C 1005.0 hPa SSW 16.7 km/h 16.7 km/h 86% 0.0 mm 160.00 W/m2
13:35 15.9 °C 13.6 °C 1005.0 hPa SW 14.8 km/h 14.8 km/h 86% 0.0 mm 113.00 W/m2
Weerstation Beverwaard NL
Compliments of Weather Underground - 2 mb